Home   Weather   French Guiana   Kourou   Past weeks
Flag for French Guiana

Past Weather in Kourou, French Guiana — Yesterday and Last 2 Weeks

Currently: 84 °F. Partly sunny. (Weather station: Cayenne / Rochambeau, French Guiana). See more current weather

Past Weather in Kourou — Graph

°F

Kourou Temperature Yesterday

Maximum temperature yesterday: 79 °F (at 3:30 pm)
Minimum temperature yesterday: 73 °F (at 12:00 am)
Average temperature yesterday: 75 °F

High & Low Weather Summary for the Past Weeks

 TemperatureHumidityPressure
High88 °F (Jan 14, 12:00 pm)100% (Jan 10, 6:00 pm)30.01 "Hg (Jan 10, 6:00 pm)
Low72 °F (Jan 13, 3:00 am)62% (Jan 14, 1:00 pm)29.80 "Hg (Jan 21, 6:00 pm)
Average77 °F90%29.90 "Hg
* Reported Jan 10 12:30 pm — Jan 25 12:30 pm, Kourou. Weather by CustomWeather, © 2022

Note: Actual official high and low records may vary slightly from our data, if they occured in-between our weather recording intervals... More about our weather records

Kourou Weather History for the Previous 24 Hours

Scroll right to see more
 ConditionsComfort  
Time TempWeatherWind HumidityBarometerVisibility
12:30 pm
Tue, Jan 25
84 °FBroken clouds.12 mph74%29.89 "HgN/A
12:00 pm84 °FPartly sunny.13 mph74%29.89 "HgN/A
11:00 am86 °FBroken clouds.13 mph66%29.92 "HgN/A
10:30 am82 °FBroken clouds.9 mph79%29.92 "HgN/A
10:00 am82 °FPartly sunny.7 mph84%29.92 "HgN/A
9:30 am81 °FBroken clouds.5 mph84%29.92 "HgN/A
9:00 am79 °FBroken clouds.No wind89%29.92 "HgN/A
8:30 am75 °FScattered clouds.No wind94%29.89 "HgN/A
8:00 am73 °FScattered clouds.2 mph100%29.89 "HgN/A
7:30 am72 °FPartly sunny.No wind100%29.86 "HgN/A
7:00 am72 °FOvercast.No wind100%29.86 "HgN/A
6:30 am72 °FMostly cloudy.2 mph100%29.86 "Hg4 mi
6:00 am72 °FPartly cloudy.No wind94%29.83 "HgN/A
5:30 am72 °FFog.No wind94%29.83 "HgN/A
5:00 am72 °FFog.2 mph100%29.83 "HgN/A
4:30 am72 °FFog.No wind100%29.83 "Hg1 mi
4:00 am72 °FLight fog.1 mph100%29.83 "Hg6 mi
3:30 am72 °FPassing clouds.2 mph100%29.83 "HgN/A
3:00 am72 °FClear.No wind100%29.83 "Hg10 mi
2:30 am72 °FClear.No wind100%29.86 "Hg10 mi
2:00 am72 °FClear.1 mph100%29.86 "Hg10 mi
1:30 am72 °FClear.No wind100%29.86 "Hg10 mi
1:00 am72 °FClear.2 mph100%29.86 "Hg10 mi
12:30 am73 °FClear.No wind94%29.89 "Hg10 mi
12:00 am73 °FClear.1 mph94%29.89 "Hg10 mi
11:30 pm
Mon, Jan 24
73 °FMostly cloudy.3 mph94%29.89 "HgN/A
11:00 pm73 °FMostly cloudy.5 mph94%29.89 "HgN/A
10:30 pm75 °FPartly cloudy.5 mph89%29.92 "HgN/A
10:00 pm75 °FOvercast.1 mph94%29.89 "HgN/A
9:30 pm75 °FClear.2 mph94%29.89 "Hg10 mi
9:00 pm75 °FClear.3 mph94%29.89 "Hg10 mi
8:30 pm75 °FClear.3 mph94%29.89 "Hg10 mi
8:00 pm75 °FClear.3 mph94%29.86 "Hg10 mi
7:30 pm75 °FMostly cloudy.2 mph94%29.86 "HgN/A
7:00 pm77 °FMostly cloudy.5 mph89%29.86 "HgN/A
6:30 pm77 °FOvercast.6 mph89%29.86 "HgN/A
6:00 pm79 °FMostly cloudy.6 mph84%29.83 "HgN/A
5:30 pm79 °FSunny.8 mph84%29.83 "Hg10 mi
5:00 pm77 °FBroken clouds.8 mph89%29.83 "HgN/A
4:30 pm79 °FPartly sunny.7 mph84%29.83 "HgN/A
4:00 pm79 °FMostly cloudy.8 mph84%29.83 "HgN/A
3:30 pm79 °FPartly sunny.7 mph84%29.86 "HgN/A
3:00 pm77 °FLight rain. Broken clouds.7 mph89%29.86 "HgN/A
2:30 pm75 °FLight rain. Partly sunny.5 mph94%29.86 "Hg4 mi
2:00 pm75 °FRain. Fog.7 mph94%29.89 "Hg2 mi
1:30 pm73 °FRain. Fog.8 mph100%29.89 "Hg2 mi
1:00 pm73 °FHeavy rain. Fog.8 mph100%29.92 "Hg1 mi
Weather by CustomWeather, © 2022

See weather overview